Time;durP1;ratioP1;P1;durP2;ratioP2;P2;SDS_P1;SDS_P2;PMS_P1;PMS_P2;Temp;Humidity;BMP_temperature;BMP_pressure;BME280_temperature;BME280_humidity;BME280_pressure;Samples;Min_cycle;Max_cycle;Signal;HPM_P1;HPM_P2
2024/01/02 00:01:29;;;;;;;0.40;0.40;;;10.10;70.90;;;;;;5070923;28;20072;-72
2024/01/02 00:03:55;;;;;;;0.50;0.50;;;10.10;70.90;;;;;;5070922;28;20035;-72
2024/01/02 00:06:20;;;;;;;0.45;0.45;;;10.10;70.90;;;;;;5070853;28;20078;-72
2024/01/02 00:08:46;;;;;;;0.55;0.55;;;10.10;70.80;;;;;;5071125;28;20029;-72
2024/01/02 00:11:12;;;;;;;0.60;0.60;;;10.10;70.80;;;;;;5070853;28;20222;-72
2024/01/02 00:13:37;;;;;;;0.55;0.55;;;10.10;70.80;;;;;;5070895;28;20085;-72
2024/01/02 00:16:03;;;;;;;0.50;0.50;;;10.20;70.70;;;;;;5070788;28;20024;-73
2024/01/02 00:18:29;;;;;;;1.48;1.38;;;10.20;70.70;;;;;;5071240;28;20033;-72
2024/01/02 00:20:55;;;;;;;0.50;0.50;;;10.20;70.80;;;;;;5070666;28;20017;-73
2024/01/02 00:23:21;;;;;;;0.50;0.50;;;10.20;70.80;;;;;;5071152;28;20037;-72
2024/01/02 00:25:46;;;;;;;0.60;0.60;;;10.20;70.90;;;;;;5070922;28;20047;-72
2024/01/02 00:28:12;;;;;;;0.40;0.40;;;10.30;70.80;;;;;;5052983;28;20052;-73
2024/01/02 00:30:39;;;;;;;0.50;0.50;;;10.30;70.90;;;;;;5070944;28;20521;-79
2024/01/02 00:33:05;;;;;;;0.50;0.50;;;10.30;70.90;;;;;;5071176;28;20028;-79
2024/01/02 00:35:31;;;;;;;0.50;0.50;;;10.30;70.80;;;;;;5072650;28;20031;-79
2024/01/02 00:37:56;;;;;;;0.40;0.40;;;10.30;70.80;;;;;;5074627;28;20032;-79
2024/01/02 00:40:22;;;;;;;0.55;0.55;;;10.40;70.80;;;;;;5056628;28;20051;-78
2024/01/02 00:42:48;;;;;;;0.85;0.70;;;10.40;70.90;;;;;;5074745;28;20528;-78
2024/01/02 00:45:14;;;;;;;0.50;0.50;;;10.40;70.90;;;;;;5074305;28;20059;-79
2024/01/02 00:47:40;;;;;;;0.60;0.60;;;10.40;70.90;;;;;;5074499;28;20484;-79
2024/01/02 00:50:06;;;;;;;0.50;0.50;;;10.50;71.00;;;;;;5074142;28;20071;-79
2024/01/02 00:52:31;;;;;;;0.50;0.50;;;10.50;71.10;;;;;;5074760;28;20111;-79
2024/01/02 00:54:57;;;;;;;0.50;0.50;;;10.50;71.00;;;;;;5074566;28;20134;-77
2024/01/02 00:57:22;;;;;;;0.40;0.40;;;10.50;71.00;;;;;;5074552;28;20041;-78
2024/01/02 00:59:48;;;;;;;0.70;0.70;;;10.60;71.00;;;;;;5056593;28;20036;-79
2024/01/02 01:02:13;;;;;;;0.40;0.40;;;10.60;70.90;;;;;;5074563;28;20139;-79
2024/01/02 01:04:43;;;;;;;0.40;0.40;;;10.70;71.00;;;;;;5074076;28;20027;-79
2024/01/02 01:07:09;;;;;;;0.40;0.40;;;10.70;71.00;;;;;;5074256;28;20399;-78
2024/01/02 01:09:34;;;;;;;0.47;0.47;;;10.70;70.90;;;;;;5073995;28;20033;-78
2024/01/02 01:12:00;;;;;;;0.50;0.50;;;10.70;70.80;;;;;;5074165;28;20067;-78
2024/01/02 01:14:25;;;;;;;0.50;0.50;;;10.70;70.80;;;;;;5074719;28;20487;-78
2024/01/02 01:16:51;;;;;;;0.50;0.50;;;10.70;70.70;;;;;;5074011;28;20037;-78
2024/01/02 01:19:16;;;;;;;0.60;0.60;;;10.70;70.80;;;;;;5074431;28;20029;-78
2024/01/02 01:21:42;;;;;;;0.47;0.47;;;10.70;70.80;;;;;;5074457;28;20032;-76
2024/01/02 01:24:07;;;;;;;1.02;0.93;;;10.70;70.70;;;;;;5074111;28;20032;-78
2024/01/02 01:26:32;;;;;;;0.50;0.50;;;10.70;70.60;;;;;;5074158;28;20045;-77
2024/01/02 01:28:58;;;;;;;0.47;0.47;;;10.70;70.60;;;;;;5056984;28;20047;-78
2024/01/02 01:31:23;;;;;;;0.85;0.85;;;10.70;70.70;;;;;;5074845;28;20017;-78
2024/01/02 01:33:49;;;;;;;0.40;0.40;;;10.70;70.70;;;;;;5056664;28;20455;-78
2024/01/02 01:36:14;;;;;;;0.50;0.50;;;10.70;70.70;;;;;;5075270;28;20074;-78
2024/01/02 01:38:40;;;;;;;0.70;0.70;;;10.70;70.70;;;;;;5056959;28;20052;-79
2024/01/02 01:41:05;;;;;;;0.50;0.50;;;10.70;70.80;;;;;;5074496;28;20384;-79
2024/01/02 01:43:31;;;;;;;0.50;0.50;;;10.70;70.70;;;;;;5056568;28;20451;-80
2024/01/02 01:45:57;;;;;;;0.50;0.50;;;10.70;70.50;;;;;;5073463;28;20077;-80
2024/01/02 01:48:23;;;;;;;0.50;0.50;;;10.70;70.70;;;;;;5073914;28;20468;-80
2024/01/02 01:50:49;;;;;;;0.40;0.40;;;10.70;70.60;;;;;;5073121;28;20036;-73
2024/01/02 01:53:15;;;;;;;0.40;0.40;;;10.70;70.70;;;;;;5073291;28;20077;-72
2024/01/02 01:55:41;;;;;;;0.40;0.40;;;10.70;70.70;;;;;;5054705;28;20029;-73
2024/01/02 01:58:07;;;;;;;0.40;0.40;;;10.70;70.90;;;;;;5073306;28;20035;-72
2024/01/02 02:00:34;;;;;;;0.50;0.50;;;10.70;70.90;;;;;;5073144;28;20027;-73
2024/01/02 02:03:00;;;;;;;0.40;0.40;;;10.70;70.90;;;;;;5072973;28;20040;-72
2024/01/02 02:05:26;;;;;;;0.50;0.50;;;10.70;70.90;;;;;;5072647;28;20032;-72
2024/01/02 02:07:53;;;;;;;0.50;0.50;;;10.70;70.90;;;;;;5073037;28;20111;-73
2024/01/02 02:10:19;;;;;;;0.45;0.45;;;10.70;70.80;;;;;;5072275;28;20021;-73
2024/01/02 02:12:45;;;;;;;0.40;0.40;;;10.80;70.70;;;;;;5072935;28;20029;-73
2024/01/02 02:15:10;;;;;;;0.60;0.60;;;10.80;70.80;;;;;;5072633;28;20373;-74
2024/01/02 02:17:36;;;;;;;0.40;0.40;;;10.70;70.80;;;;;;5055033;28;20028;-72
2024/01/02 02:20:01;;;;;;;0.47;0.47;;;10.80;70.70;;;;;;5072435;28;20037;-72
2024/01/02 02:22:34;;;;;;;0.50;0.50;;;10.70;70.70;;;;;;5054277;28;20039;-73
2024/01/02 02:25:05;;;;;;;0.60;0.60;;;10.80;70.80;;;;;;5072233;28;20106;-73
2024/01/02 02:27:32;;;;;;;0.40;0.40;;;10.70;70.60;;;;;;5054451;28;20032;-73
2024/01/02 02:29:57;;;;;;;0.50;0.50;;;10.70;70.80;;;;;;5072144;28;20037;-72
2024/01/02 02:32:23;;;;;;;1.15;1.15;;;10.70;70.70;;;;;;5072189;28;20028;-73
2024/01/02 02:34:48;;;;;;;0.50;0.50;;;10.70;70.70;;;;;;5072171;28;20028;-73
2024/01/02 02:37:14;;;;;;;0.50;0.50;;;10.70;70.70;;;;;;5072339;28;20085;-73
2024/01/02 02:39:40;;;;;;;0.50;0.50;;;10.70;70.60;;;;;;5071941;28;20372;-73
2024/01/02 02:42:05;;;;;;;0.50;0.50;;;10.70;70.60;;;;;;5072036;28;20135;-72
2024/01/02 02:44:31;;;;;;;0.43;0.43;;;10.70;70.70;;;;;;5053919;28;20017;-72
2024/01/02 02:46:57;;;;;;;0.52;0.52;;;10.70;70.70;;;;;;5071966;28;20063;-72
2024/01/02 02:49:24;;;;;;;0.50;0.50;;;10.70;70.70;;;;;;5071780;28;20078;-73
2024/01/02 02:51:50;;;;;;;0.50;0.50;;;10.70;70.70;;;;;;5071701;28;20039;-72
2024/01/02 02:54:16;;;;;;;0.45;0.45;;;10.70;70.70;;;;;;5071998;28;20107;-73
2024/01/02 02:56:43;;;;;;;0.50;0.50;;;10.60;70.70;;;;;;5071712;28;20037;-72
2024/01/02 02:59:09;;;;;;;0.55;0.55;;;10.60;70.70;;;;;;5071468;28;20047;-72
2024/01/02 03:01:35;;;;;;;0.43;0.43;;;10.70;70.80;;;;;;5072064;28;20468;-82
2024/01/02 03:04:00;;;;;;;0.47;0.47;;;10.70;70.70;;;;;;5072004;28;20115;-79
2024/01/02 03:06:26;;;;;;;0.50;0.50;;;10.70;70.70;;;;;;5071983;28;20434;-81
2024/01/02 03:08:51;;;;;;;0.50;0.50;;;10.60;70.70;;;;;;5072089;28;20021;-76
2024/01/02 03:11:18;;;;;;;0.60;0.60;;;10.60;70.80;;;;;;5054123;28;20183;-81
2024/01/02 03:13:44;;;;;;;0.50;0.50;;;10.70;70.80;;;;;;5071901;28;20464;-80
2024/01/02 03:16:09;;;;;;;0.43;0.43;;;10.60;70.70;;;;;;5071750;28;20028;-78
2024/01/02 03:18:35;;;;;;;0.60;0.60;;;10.70;70.70;;;;;;5071919;28;20039;-80
2024/01/02 03:21:01;;;;;;;0.55;0.55;;;10.70;70.80;;;;;;5054097;28;20150;-80
2024/01/02 03:23:26;;;;;;;0.40;0.40;;;10.70;70.80;;;;;;5071701;28;20090;-80
2024/01/02 03:25:52;;;;;;;0.45;0.45;;;10.60;70.80;;;;;;5053851;28;20450;-79
2024/01/02 03:28:17;;;;;;;0.50;0.50;;;10.60;70.90;;;;;;5053928;28;20045;-79
2024/01/02 03:30:43;;;;;;;0.43;0.43;;;10.60;70.80;;;;;;5053639;28;20432;-80
2024/01/02 03:33:08;;;;;;;0.50;0.50;;;10.70;70.80;;;;;;5072323;28;20464;-79
2024/01/02 03:35:34;;;;;;;0.50;0.50;;;10.60;70.80;;;;;;5071519;28;20017;-79
2024/01/02 03:37:59;;;;;;;0.50;0.50;;;10.60;70.90;;;;;;5053280;28;20032;-78
2024/01/02 03:40:25;;;;;;;0.50;0.50;;;10.60;71.00;;;;;;5071611;28;20036;-78
2024/01/02 03:42:50;;;;;;;0.47;0.47;;;10.60;70.90;;;;;;5071865;28;20529;-78
2024/01/02 03:45:16;;;;;;;0.40;0.40;;;10.60;71.00;;;;;;5071677;28;20025;-78
2024/01/02 03:47:42;;;;;;;0.50;0.50;;;10.60;71.10;;;;;;5072011;28;20037;-78
2024/01/02 03:50:07;;;;;;;0.50;0.50;;;10.60;71.10;;;;;;5071416;28;20036;-79
2024/01/02 03:52:34;;;;;;;0.50;0.50;;;10.60;71.10;;;;;;5053356;28;20035;-78
2024/01/02 03:54:59;;;;;;;0.43;0.43;;;10.60;71.10;;;;;;5071927;28;20075;-78
2024/01/02 03:57:26;;;;;;;0.40;0.40;;;10.60;71.10;;;;;;5071931;28;20052;-78
2024/01/02 03:59:52;;;;;;;0.40;0.40;;;10.60;71.20;;;;;;5072214;28;20021;-78
2024/01/02 04:02:18;;;;;;;0.50;0.50;;;10.60;71.20;;;;;;5071288;28;20036;-77
2024/01/02 04:04:44;;;;;;;0.50;0.50;;;10.60;71.30;;;;;;5071716;28;20060;-76
2024/01/02 04:07:09;;;;;;;0.57;0.57;;;10.60;71.20;;;;;;5071006;28;20040;-79
2024/01/02 04:09:35;;;;;;;0.50;0.50;;;10.60;71.30;;;;;;5072623;28;20032;-80
2024/01/02 04:12:00;;;;;;;0.55;0.55;;;10.60;71.30;;;;;;5075175;28;20494;-76
2024/01/02 04:14:26;;;;;;;0.47;0.47;;;10.70;71.30;;;;;;5057303;28;20064;-80
2024/01/02 04:16:52;;;;;;;3.30;1.20;;;10.70;71.30;;;;;;5075139;28;20032;-80
2024/01/02 04:19:17;;;;;;;0.40;0.40;;;10.70;71.30;;;;;;5074930;28;20039;-77
2024/01/02 04:21:43;;;;;;;0.40;0.40;;;10.70;71.30;;;;;;5075369;28;20416;-80
2024/01/02 04:24:09;;;;;;;0.50;0.50;;;10.70;71.30;;;;;;5057028;28;20060;-77
2024/01/02 04:26:34;;;;;;;0.50;0.50;;;10.70;71.30;;;;;;5075074;28;20352;-81
2024/01/02 04:29:01;;;;;;;0.57;0.57;;;10.70;71.30;;;;;;5075170;28;20087;-80
2024/01/02 04:31:26;;;;;;;0.50;0.50;;;10.70;71.30;;;;;;5074927;28;20485;-78
2024/01/02 04:33:52;;;;;;;0.40;0.40;;;10.70;71.30;;;;;;5074751;28;20031;-78
2024/01/02 04:36:17;;;;;;;0.40;0.40;;;10.70;71.30;;;;;;5074686;28;20056;-78
2024/01/02 04:38:43;;;;;;;0.40;0.40;;;10.70;71.30;;;;;;5074676;28;20028;-77
2024/01/02 04:41:08;;;;;;;0.50;0.50;;;10.80;71.30;;;;;;5074442;28;20040;-78
2024/01/02 04:43:34;;;;;;;0.43;0.43;;;10.70;71.30;;;;;;5074776;28;20056;-77
2024/01/02 04:45:59;;;;;;;0.80;0.80;;;10.70;71.30;;;;;;5074695;28;20031;-76
2024/01/02 04:48:25;;;;;;;0.50;0.50;;;10.80;71.30;;;;;;5075093;28;20045;-78
2024/01/02 04:50:50;;;;;;;0.40;0.40;;;10.70;71.40;;;;;;5074710;28;20066;-79
2024/01/02 04:53:16;;;;;;;0.50;0.50;;;10.70;71.40;;;;;;5074593;28;20064;-79
2024/01/02 04:55:41;;;;;;;0.45;0.45;;;10.80;71.40;;;;;;5074075;28;20032;-79
2024/01/02 04:58:07;;;;;;;0.60;0.60;;;10.80;71.20;;;;;;5074817;28;20082;-78
2024/01/02 05:00:33;;;;;;;0.50;0.50;;;10.80;71.40;;;;;;5073959;28;20021;-80
2024/01/02 05:02:58;;;;;;;0.50;0.50;;;10.70;71.30;;;;;;5074560;28;20392;-79
2024/01/02 05:05:24;;;;;;;0.40;0.40;;;10.80;71.20;;;;;;5074010;28;20029;-79
2024/01/02 05:07:49;;;;;;;0.40;0.40;;;10.70;71.30;;;;;;5074259;28;20430;-78
2024/01/02 05:10:15;;;;;;;0.50;0.50;;;10.70;71.20;;;;;;5073886;28;20033;-77
2024/01/02 05:12:41;;;;;;;0.50;0.50;;;10.70;71.20;;;;;;5074493;28;20033;-78
2024/01/02 05:15:07;;;;;;;0.50;0.50;;;10.70;71.30;;;;;;5072754;28;20036;-78
2024/01/02 05:17:32;;;;;;;0.40;0.40;;;10.80;71.20;;;;;;5073133;28;20363;-78
2024/01/02 05:19:58;;;;;;;0.52;0.52;;;10.70;71.20;;;;;;5073846;28;20032;-72
2024/01/02 05:22:24;;;;;;;0.50;0.50;;;10.70;71.30;;;;;;5054474;28;20392;-71
2024/01/02 05:24:49;;;;;;;0.40;0.40;;;10.70;71.30;;;;;;5053577;28;20052;-72
2024/01/02 05:27:15;;;;;;;0.45;0.45;;;10.70;71.30;;;;;;5053774;28;20428;-71
2024/01/02 05:29:42;;;;;;;0.50;0.50;;;10.70;71.40;;;;;;5053344;28;20031;-72
2024/01/02 05:32:07;;;;;;;0.50;0.50;;;10.70;71.30;;;;;;5053555;28;20059;-72
2024/01/02 05:34:33;;;;;;;0.43;0.43;;;10.70;71.20;;;;;;5053277;28;20051;-72
2024/01/02 05:36:58;;;;;;;0.60;0.60;;;10.60;71.20;;;;;;5053074;28;20045;-72
2024/01/02 05:39:24;;;;;;;0.50;0.50;;;10.70;71.20;;;;;;5035157;28;20505;-72
2024/01/02 05:41:49;;;;;;;0.60;0.60;;;10.70;71.00;;;;;;5053233;28;20036;-72
2024/01/02 05:44:15;;;;;;;0.43;0.43;;;10.60;71.10;;;;;;5053393;28;20146;-74
2024/01/02 05:46:40;;;;;;;0.40;0.40;;;10.60;71.10;;;;;;5052937;28;20041;-73
2024/01/02 05:49:06;;;;;;;0.47;0.47;;;10.60;71.20;;;;;;5053065;28;20035;-73
2024/01/02 05:51:31;;;;;;;0.50;0.50;;;10.60;71.10;;;;;;5052750;28;20087;-73
2024/01/02 05:53:57;;;;;;;0.30;0.30;;;10.60;71.30;;;;;;5053246;28;20057;-73
2024/01/02 05:56:22;;;;;;;0.60;0.60;;;10.60;71.20;;;;;;5052656;28;20029;-73
2024/01/02 05:58:48;;;;;;;0.50;0.50;;;10.60;71.00;;;;;;5053112;28;20385;-73
2024/01/02 06:01:13;;;;;;;0.40;0.40;;;10.60;71.10;;;;;;5052949;28;20025;-73
2024/01/02 06:03:39;;;;;;;0.50;0.50;;;10.60;71.30;;;;;;5052675;28;20033;-73
2024/01/02 06:06:05;;;;;;;0.47;0.47;;;10.60;71.20;;;;;;5052716;28;20036;-73
2024/01/02 06:08:31;;;;;;;0.40;0.40;;;10.60;71.10;;;;;;5052571;28;20480;-73
2024/01/02 06:10:57;;;;;;;0.50;0.50;;;10.60;71.10;;;;;;5052635;28;20036;-73
2024/01/02 06:13:22;;;;;;;0.50;0.50;;;10.60;71.20;;;;;;5053079;28;20037;-73
2024/01/02 06:15:48;;;;;;;0.40;0.40;;;10.60;71.10;;;;;;5052621;28;20504;-73
2024/01/02 06:18:13;;;;;;;0.50;0.50;;;10.60;71.00;;;;;;5052905;28;20025;-73
2024/01/02 06:20:39;;;;;;;0.50;0.50;;;10.50;71.00;;;;;;5055509;28;20027;-73
2024/01/02 06:23:04;;;;;;;0.47;0.47;;;10.50;71.00;;;;;;5072624;28;20036;-73
2024/01/02 06:25:30;;;;;;;0.40;0.40;;;10.50;71.00;;;;;;5072098;28;20102;-73
2024/01/02 06:27:56;;;;;;;0.50;0.50;;;10.40;70.90;;;;;;5070760;28;20470;-73
2024/01/02 06:30:22;;;;;;;0.47;0.47;;;10.40;71.10;;;;;;5069730;28;20025;-72
2024/01/02 06:32:50;;;;;;;0.43;0.43;;;10.40;71.10;;;;;;5070419;28;20138;-73
2024/01/02 06:35:15;;;;;;;0.40;0.40;;;10.40;71.20;;;;;;5069150;28;20021;-72
2024/01/02 06:37:41;;;;;;;0.50;0.50;;;10.40;71.20;;;;;;5071823;28;20040;-72
2024/01/02 06:40:08;;;;;;;0.50;0.50;;;10.40;71.10;;;;;;5070333;28;20032;-72
2024/01/02 06:42:34;;;;;;;0.50;0.50;;;10.40;71.20;;;;;;5069413;28;20392;-72
2024/01/02 06:45:00;;;;;;;0.50;0.50;;;10.40;71.30;;;;;;5070436;28;20024;-73
2024/01/02 06:47:25;;;;;;;0.40;0.40;;;10.40;71.30;;;;;;5070095;28;20767;-72
2024/01/02 06:49:51;;;;;;;1.35;1.25;;;10.40;71.20;;;;;;5070386;28;20040;-72
2024/01/02 06:52:16;;;;;;;0.50;0.50;;;10.40;71.20;;;;;;5071163;28;20120;-72
2024/01/02 06:54:41;;;;;;;0.50;0.50;;;10.50;71.20;;;;;;5069439;28;20093;-73
2024/01/02 06:57:08;;;;;;;0.40;0.40;;;10.40;71.30;;;;;;5069765;28;20037;-73
2024/01/02 06:59:33;;;;;;;0.50;0.50;;;10.40;71.30;;;;;;5055031;28;20028;-73
2024/01/02 07:01:58;;;;;;;0.50;0.50;;;10.40;71.30;;;;;;5052110;28;20447;-73
2024/01/02 07:04:24;;;;;;;0.43;0.43;;;10.50;71.30;;;;;;5070429;28;20029;-73
2024/01/02 07:06:50;;;;;;;0.40;0.40;;;10.50;71.30;;;;;;5053455;28;20127;-73
2024/01/02 07:09:15;;;;;;;0.40;0.40;;;10.50;71.20;;;;;;5052473;28;20028;-74
2024/01/02 07:11:41;;;;;;;0.50;0.50;;;10.50;71.30;;;;;;5050767;28;20461;-73
2024/01/02 07:14:07;;;;;;;0.50;0.50;;;10.50;71.40;;;;;;5067386;28;20017;-73
2024/01/02 07:16:32;;;;;;;0.40;0.40;;;10.50;71.40;;;;;;5068577;28;20040;-73
2024/01/02 07:18:58;;;;;;;0.43;0.43;;;10.50;71.40;;;;;;5071056;28;20486;-72
2024/01/02 07:21:23;;;;;;;0.50;0.50;;;10.50;71.40;;;;;;5067838;28;20090;-74
2024/01/02 07:23:49;;;;;;;0.50;0.50;;;10.60;71.50;;;;;;5069129;28;20025;-74
2024/01/02 07:26:14;;;;;;;0.50;0.50;;;10.60;71.40;;;;;;5069510;28;20024;-74
2024/01/02 07:28:40;;;;;;;0.40;0.40;;;10.60;71.30;;;;;;5069081;28;20499;-73
2024/01/02 07:31:09;;;;;;;0.50;0.50;;;10.60;71.20;;;;;;5069419;28;20016;-71
2024/01/02 07:33:34;;;;;;;0.50;0.50;;;10.60;71.50;;;;;;5070952;28;20531;-71
2024/01/02 07:36:00;;;;;;;0.40;0.40;;;10.60;71.60;;;;;;5070464;28;20100;-73
2024/01/02 07:38:26;;;;;;;0.50;0.50;;;10.60;71.60;;;;;;5051876;28;20419;-72
2024/01/02 07:40:54;;;;;;;0.43;0.43;;;10.70;71.70;;;;;;5068121;28;20505;-79
2024/01/02 07:43:22;;;;;;;0.50;0.50;;;10.70;71.70;;;;;;5069175;28;20029;-78
2024/01/02 07:45:47;;;;;;;0.50;0.50;;;10.80;71.60;;;;;;5071899;28;20111;-78
2024/01/02 07:48:13;;;;;;;0.50;0.50;;;10.80;71.70;;;;;;5072856;28;20111;-78
2024/01/02 07:50:38;;;;;;;0.40;0.40;;;10.80;71.80;;;;;;5066240;28;20037;-78
2024/01/02 07:53:04;;;;;;;0.43;0.43;;;10.80;71.70;;;;;;5051011;28;20043;-79
2024/01/02 07:55:29;;;;;;;0.50;0.50;;;10.90;71.60;;;;;;5048072;28;20028;-79
2024/01/02 07:57:55;;;;;;;0.40;0.40;;;10.90;71.70;;;;;;5060911;28;20085;-80
2024/01/02 08:00:20;;;;;;;0.40;0.40;;;10.90;71.60;;;;;;5064704;28;20020;-80
2024/01/02 08:02:46;;;;;;;0.40;0.40;;;11.00;71.70;;;;;;5051626;28;20036;-80
2024/01/02 08:05:11;;;;;;;0.43;0.43;;;11.00;71.80;;;;;;5069137;28;20040;-79
2024/01/02 08:07:37;;;;;;;0.50;0.50;;;11.00;71.90;;;;;;5065192;28;20111;-79
2024/01/02 08:10:03;;;;;;;0.40;0.40;;;11.10;71.90;;;;;;5067382;28;20468;-79
2024/01/02 08:12:29;;;;;;;0.50;0.50;;;11.20;72.00;;;;;;5066360;28;20500;-77
2024/01/02 08:14:54;;;;;;;0.40;0.40;;;11.20;72.10;;;;;;5064277;28;20086;-79
2024/01/02 08:17:23;;;;;;;0.40;0.40;;;11.30;72.10;;;;;;5068898;28;20033;-79
2024/01/02 08:19:50;;;;;;;0.40;0.40;;;11.30;72.00;;;;;;5069538;28;20063;-79
2024/01/02 08:22:17;;;;;;;0.47;0.47;;;11.40;72.10;;;;;;5042238;28;20105;-79
2024/01/02 08:24:43;;;;;;;0.40;0.40;;;11.40;72.10;;;;;;5051750;28;20082;-80
2024/01/02 08:27:08;;;;;;;0.40;0.40;;;11.50;72.20;;;;;;5068275;28;20427;-79
2024/01/02 08:29:34;;;;;;;0.50;0.50;;;11.60;72.30;;;;;;5069428;28;20060;-79
2024/01/02 08:32:00;;;;;;;0.40;0.40;;;11.70;72.40;;;;;;5051119;28;20021;-80
2024/01/02 08:34:25;;;;;;;0.45;0.45;;;11.70;72.40;;;;;;5050086;28;20546;-80
2024/01/02 08:36:51;;;;;;;0.40;0.40;;;11.80;72.50;;;;;;5068509;28;20090;-80
2024/01/02 08:39:16;;;;;;;0.70;0.70;;;11.90;72.50;;;;;;5065302;28;20484;-80
2024/01/02 08:41:42;;;;;;;0.50;0.50;;;12.00;72.50;;;;;;5068510;28;20040;-81
2024/01/02 08:44:08;;;;;;;0.40;0.40;;;12.00;72.50;;;;;;5036564;28;20262;-78
2024/01/02 08:46:34;;;;;;;0.38;0.38;;;12.10;72.60;;;;;;5068306;28;20029;-80
2024/01/02 08:48:59;;;;;;;0.50;0.50;;;12.20;72.70;;;;;;5065465;28;20029;-80
2024/01/02 08:51:25;;;;;;;0.50;0.50;;;12.30;72.60;;;;;;5054880;28;20036;-75
2024/01/02 08:53:50;;;;;;;0.40;0.40;;;12.30;72.60;;;;;;5069430;28;20025;-73
2024/01/02 08:56:16;;;;;;;0.40;0.40;;;12.40;72.80;;;;;;5067240;28;20098;-73
2024/01/02 08:58:42;;;;;;;0.50;0.50;;;12.40;73.00;;;;;;5067611;28;20017;-73
2024/01/02 09:01:16;;;;;;;0.50;0.50;;;12.60;73.10;;;;;;5064729;28;20108;-74
2024/01/02 09:03:41;;;;;;;0.60;0.60;;;12.70;73.10;;;;;;5065097;28;20391;-73
2024/01/02 09:06:07;;;;;;;0.45;0.45;;;12.70;73.10;;;;;;5068584;28;20031;-73
2024/01/02 09:08:33;;;;;;;0.40;0.40;;;12.80;73.30;;;;;;5066852;28;20610;-73
2024/01/02 09:10:58;;;;;;;0.40;0.40;;;12.90;73.30;;;;;;5064772;28;20032;-74
2024/01/02 09:13:24;;;;;;;0.38;0.38;;;13.00;73.10;;;;;;5067389;28;20408;-73
2024/01/02 09:15:49;;;;;;;0.40;0.40;;;13.10;73.20;;;;;;5046740;28;20059;-73
2024/01/02 09:18:15;;;;;;;0.50;0.50;;;13.20;73.10;;;;;;5065442;28;20029;-73
2024/01/02 09:20:40;;;;;;;0.40;0.40;;;13.30;73.10;;;;;;5064051;28;20563;-73
2024/01/02 09:23:06;;;;;;;0.40;0.40;;;13.40;73.10;;;;;;5068127;28;20036;-74
2024/01/02 09:25:35;;;;;;;0.50;0.50;;;13.50;73.10;;;;;;5048983;28;20476;-73
2024/01/02 09:28:03;;;;;;;0.45;0.45;;;13.50;73.20;;;;;;5068022;28;20044;-74
2024/01/02 09:30:29;;;;;;;0.40;0.40;;;13.60;73.20;;;;;;5056935;28;20089;-74
2024/01/02 09:32:55;;;;;;;0.50;0.50;;;13.70;73.20;;;;;;5047074;28;20032;-72
2024/01/02 09:35:20;;;;;;;0.40;0.40;;;13.70;73.20;;;;;;5067065;28;20082;-74
2024/01/02 09:37:46;;;;;;;0.40;0.40;;;13.80;73.10;;;;;;5067564;28;20040;-75
2024/01/02 09:40:36;;;;;;;0.40;0.40;;;13.80;73.10;;;;;;5043964;28;20024;-75
2024/01/02 09:43:15;;;;;;;0.40;0.40;;;13.90;73.20;;;;;;5048456;28;20044;-74
2024/01/02 09:45:57;;;;;;;0.50;0.50;;;14.00;73.10;;;;;;5065535;28;20031;-74
2024/01/02 09:49:09;;;;;;;0.40;0.40;;;14.00;73.10;;;;;;5066271;28;20533;-74
2024/01/02 09:52:06;;;;;;;0.40;0.40;;;14.10;73.20;;;;;;4984533;28;20462;-73
2024/01/02 09:54:55;;;;;;;0.50;0.50;;;14.10;73.30;;;;;;4985585;28;20030;-74
2024/01/02 09:57:41;;;;;;;0.40;0.40;;;14.20;73.40;;;;;;5058924;28;20115;-73
2024/01/02 10:00:29;;;;;;;0.47;0.47;;;14.30;73.40;;;;;;5048793;28;20024;-74
2024/01/02 10:03:10;;;;;;;0.40;0.40;;;14.30;73.40;;;;;;5036338;28;20049;-74
2024/01/02 10:05:51;;;;;;;0.50;0.50;;;14.40;73.30;;;;;;5047936;28;20039;-73
2024/01/02 10:08:33;;;;;;;0.40;0.40;;;14.50;73.40;;;;;;5060088;28;20078;-73
2024/01/02 10:11:11;;;;;;;0.40;0.40;;;14.60;73.30;;;;;;5048513;28;20047;-73
2024/01/02 10:13:47;;;;;;;0.50;0.50;;;14.70;73.30;;;;;;5063982;28;20036;-73
2024/01/02 10:16:19;;;;;;;0.40;0.40;;;14.80;73.20;;;;;;5049134;28;20543;-72
2024/01/02 10:19:25;;;;;;;0.43;0.43;;;14.80;73.10;;;;;;5065793;28;20365;-72
2024/01/02 10:22:13;;;;;;;0.60;0.60;;;14.90;73.10;;;;;;5047843;28;20097;-72
2024/01/02 10:24:51;;;;;;;0.45;0.45;;;14.90;73.10;;;;;;5066804;28;20043;-72
2024/01/02 10:27:23;;;;;;;0.40;0.40;;;15.00;73.10;;;;;;5066838;28;20048;-72
2024/01/02 10:30:08;;;;;;;0.50;0.50;;;15.00;73.00;;;;;;5067106;28;20040;-73
2024/01/02 10:32:59;;;;;;;0.40;0.40;;;15.20;73.10;;;;;;5044787;28;20483;-72
2024/01/02 10:35:36;;;;;;;0.47;0.47;;;15.20;73.00;;;;;;5045823;28;20480;-73
2024/01/02 10:38:07;;;;;;;0.50;0.50;;;15.30;73.10;;;;;;5067159;28;20040;-72
2024/01/02 10:40:34;;;;;;;0.80;0.80;;;15.30;73.00;;;;;;5061675;28;20044;-73
2024/01/02 10:43:25;;;;;;;0.50;0.50;;;15.30;72.90;;;;;;5062480;28;20041;-72
2024/01/02 10:46:05;;;;;;;0.40;0.40;;;15.30;72.90;;;;;;5041910;28;20024;-72
2024/01/02 10:48:47;;;;;;;0.50;0.50;;;15.40;72.90;;;;;;5065308;28;20036;-73
2024/01/02 10:51:25;;;;;;;0.65;0.65;;;15.40;73.00;;;;;;5051819;28;20051;-74
2024/01/02 10:54:19;;;;;;;0.85;0.85;;;15.40;73.30;;;;;;5064566;28;20092;-73
2024/01/02 10:56:59;;;;;;;0.40;0.40;;;15.50;73.30;;;;;;5066325;28;20302;-72
2024/01/02 11:00:00;;;;;;;0.38;0.38;;;15.60;73.20;;;;;;5066540;28;20031;-72
2024/01/02 11:02:57;;;;;;;0.65;0.65;;;15.70;73.20;;;;;;5065740;28;20048;-73
2024/01/02 11:05:39;;;;;;;0.45;0.45;;;15.60;73.20;;;;;;5065629;28;20020;-73
2024/01/02 11:08:36;;;;;;;1.10;0.77;;;15.70;73.30;;;;;;5065655;28;20029;-72
2024/01/02 11:11:05;;;;;;;0.55;0.55;;;15.70;73.20;;;;;;5063451;28;20025;-72
2024/01/02 11:13:36;;;;;;;0.68;0.68;;;15.70;73.00;;;;;;5063397;28;20060;-73
2024/01/02 11:16:13;;;;;;;0.50;0.50;;;15.70;73.00;;;;;;5065866;28;20116;-74
2024/01/02 11:18:42;;;;;;;0.50;0.50;;;15.70;72.90;;;;;;5064339;28;20044;-74
2024/01/02 11:21:17;;;;;;;0.40;0.40;;;15.70;73.00;;;;;;5062379;28;20627;-73
2024/01/02 11:23:49;;;;;;;0.50;0.50;;;15.80;72.90;;;;;;5066654;28;20140;-75
2024/01/02 11:26:20;;;;;;;0.40;0.40;;;15.80;73.00;;;;;;5065854;28;20488;-76
2024/01/02 11:28:49;;;;;;;12.80;1.40;;;15.80;72.90;;;;;;5048303;28;20032;-74
2024/01/02 11:31:16;;;;;;;0.45;0.45;;;15.80;73.20;;;;;;5050243;28;20517;-73
2024/01/02 11:34:03;;;;;;;0.47;0.47;;;15.80;73.20;;;;;;5080793;28;20020;-73
2024/01/02 11:36:55;;;;;;;0.40;0.40;;;15.90;73.30;;;;;;5047487;28;20032;-72
2024/01/02 11:40:03;;;;;;;0.40;0.40;;;16.00;73.40;;;;;;5056815;28;20086;-72
2024/01/02 11:42:47;;;;;;;0.43;0.43;;;16.10;73.40;;;;;;5062682;28;20040;-72
2024/01/02 11:45:17;;;;;;;0.40;0.40;;;16.20;73.50;;;;;;5064893;28;20039;-73
2024/01/02 11:48:27;;;;;;;0.65;0.65;;;16.20;73.40;;;;;;5066424;28;20029;-74
2024/01/02 11:50:57;;;;;;;0.40;0.40;;;16.30;73.20;;;;;;5065496;28;20321;-74
2024/01/02 11:53:41;;;;;;;0.83;0.83;;;16.30;73.10;;;;;;5064544;28;20491;-72
2024/01/02 11:56:10;;;;;;;0.40;0.40;;;16.40;72.90;;;;;;5064482;28;20040;-74
2024/01/02 11:58:56;;;;;;;0.52;0.52;;;16.40;72.90;;;;;;5066124;28;20095;-74
2024/01/02 12:01:59;;;;;;;0.47;0.47;;;16.40;72.70;;;;;;5064331;28;20036;-73
2024/01/02 12:05:01;;;;;;;0.50;0.50;;;16.40;72.60;;;;;;5065576;28;20052;-73
2024/01/02 12:07:27;;;;;;;0.40;0.40;;;16.30;72.60;;;;;;5060823;28;20033;-72
2024/01/02 12:09:55;;;;;;;0.63;0.63;;;16.40;72.50;;;;;;5062896;28;20124;-72
2024/01/02 12:12:44;;;;;;;0.50;0.50;;;16.40;72.40;;;;;;5039684;28;20033;-72
2024/01/02 12:15:16;;;;;;;0.40;0.40;;;16.40;72.40;;;;;;5064206;28;20025;-73
2024/01/02 12:17:46;;;;;;;0.50;0.50;;;16.30;72.40;;;;;;5066186;28;20033;-72
2024/01/02 12:20:17;;;;;;;0.40;0.40;;;16.30;72.40;;;;;;5046962;28;20074;-78
2024/01/02 12:22:43;;;;;;;0.60;0.60;;;16.30;72.10;;;;;;5081013;28;20035;-79
2024/01/02 12:25:11;;;;;;;0.40;0.40;;;16.20;72.20;;;;;;5065095;28;20313;-77
2024/01/02 12:27:37;;;;;;;0.50;0.50;;;16.20;72.40;;;;;;5080083;28;20028;-76
2024/01/02 12:30:06;;;;;;;0.50;0.50;;;16.20;72.40;;;;;;5088760;28;20240;-77
2024/01/02 12:32:56;;;;;;;0.50;0.50;;;16.10;72.20;;;;;;5103257;28;20036;-77
2024/01/02 12:35:31;;;;;;;0.50;0.50;;;16.00;72.60;;;;;;5108044;28;20035;-77
2024/01/02 12:38:02;;;;;;;0.40;0.40;;;16.00;72.60;;;;;;5072970;28;20094;-79
2024/01/02 12:40:31;;;;;;;0.40;0.40;;;16.00;72.60;;;;;;5055048;28;20029;-80
2024/01/02 12:42:58;;;;;;;0.60;0.60;;;16.00;72.60;;;;;;5072874;28;20075;-80
2024/01/02 12:45:33;;;;;;;0.65;0.65;;;16.00;72.50;;;;;;5078212;28;20384;-76
2024/01/02 12:48:04;;;;;;;0.40;0.40;;;16.00;72.40;;;;;;5063445;28;20040;-79
2024/01/02 12:50:30;;;;;;;;;;;15.90;72.20;;;;;;5083309;28;20032;-77
2024/01/02 12:53:09;;;;;;;0.50;0.50;;;15.80;72.40;;;;;;5061628;28;19919;-78
2024/01/02 12:55:49;;;;;;;0.30;0.30;;;15.80;72.40;;;;;;5076416;28;20463;-79
2024/01/02 12:58:16;;;;;;;0.43;0.43;;;15.80;72.50;;;;;;5053097;28;20124;-79